Terminal Aerodrome Forecast
Issued by NWS

Home | Current Version | Previous Version | Text Only | Print | Product List | Glossary On
Versions: 1 2 3 4 5 6 7 8 9 10 11 12 13 14 15 16 17 18 19 20 21 22
000
FTUS42 KJAX 290520
TAFVQQ
TAF
KVQQ 290520Z 2906/3006 00000KT P6SM BKN250
      TEMPO 2908/2912 3SM BR BKN005
     FM291400 34005KT P6SM SCT030
     FM291900 07008KT P6SM VCSH BKN040=

USA.gov is the U.S. government's official web portal to all federal, state and local government web resources and services.